Terminal Aerodrome Forecast
Issued by NWS Quad Cities IA IL

Home | Current Version | Previous Version | Text Only | Print | Product List | Glossary On
Versions: 1 2 3 4 5 6 7 8 9 10 11 12 13 14 15 16 17 18 19 20 21 22 23 24 25 26 27 28 29 30 31 32 33
000
FTUS43 KDVN 231900 AAA
TAFMLI
TAF AMD
KMLI 231910Z 2319/2418 10006KT P6SM SCT008 OVC150
     FM232100 13007KT P6SM SCT015 SCT150
     FM240600 14005KT 4SM BR SCT120
     FM240900 15004KT 1SM BR SCT005 SCT250
     FM241500 18008KT 6SM BR BKN250=

USA.gov is the U.S. government's official web portal to all federal, state and local government web resources and services.